Latest Weather Observations for Mildura

IDN60801

Issued at 11:35 pm EST Tuesday 2 September 2014 (issued every 30 minutes, with the page automatically refreshed every 10 minutes)

About weather observations | Map of weather stations | Latest weather observations for NSW | Other Formats
Station Details ID: 076031 Name: MILDURA AIRPORT Lat: -34.24 Lon: 142.09 Height: 50.0 m
Data from the previous 72 hours. | See also: Recent months at Mildura
Date/Time
EST
Temp
°C
App
Temp
°C
Dew
Point
Rel
Hum
%
Delta-T
°C
Wind Press
QNH
hPa
Press
MSL
hPa
Rain
since 9 am
mm
Dir
 
Spd
km/h
Gust
km/h
Spd
kts
Gust
kts
02/11:30pm 7.5 3.8 2.1 68 2.2 SSW 11 15 6 8 1024.9 - 0.0
02/11:00pm 7.8 4.0 1.7 65 2.5 SSW 11 17 6 9 1024.6 1024.6 0.0
02/10:30pm 7.8 4.3 1.4 64 2.6 SSW 9 13 5 7 1024.5 - 0.0
02/10:00pm 8.2 4.7 1.3 62 2.8 SSW 9 11 5 6 1024.4 1024.4 0.0
02/09:30pm 8.4 5.3 1.6 62 2.8 SSW 7 9 4 5 1024.4 - 0.0
02/09:00pm 9.1 6.1 1.9 60 3.0 SW 7 9 4 5 1024.3 1024.3 0.0
02/08:30pm 9.9 6.4 1.4 55 3.5 SSW 9 11 5 6 1024.1 - 0.0
02/08:00pm 10.3 6.9 1.7 55 3.6 SW 9 13 5 7 1024.1 1024.1 0.0
02/07:30pm 10.8 7.8 2.1 55 3.7 SW 7 11 4 6 1023.8 - 0.0
02/07:00pm 11.9 8.4 1.5 49 4.4 SW 9 11 5 6 1023.4 1023.4 0.0
02/06:30pm 12.7 8.8 1.4 46 4.8 SSW 11 15 6 8 1023.0 - 0.0
02/06:00pm 14.3 9.6 1.0 40 5.7 SSW 15 20 8 11 1022.6 1022.6 0.0
02/05:30pm 15.5 10.4 0.6 36 6.4 S 17 28 9 15 1022.2 - 0.0
02/05:00pm 15.9 10.0 -0.5 32 6.9 SSW 20 32 11 17 1021.9 1021.9 0.0
02/04:30pm 16.1 10.3 0.2 34 6.8 SSW 20 33 11 18 1021.7 - 0.0
02/04:00pm 14.8 9.3 0.8 38 6.0 SSW 19 30 10 16 1021.5 1021.5 0.0
02/03:30pm 15.5 10.3 2.2 40 5.9 SSW 19 30 10 16 1021.4 - 0.0
02/03:00pm 16.6 11.2 2.4 38 6.4 SSW 20 32 11 17 1021.3 1021.3 0.0
02/02:30pm 14.7 10.1 3.7 47 5.0 S 17 32 9 17 1021.6 - 0.0
02/02:00pm 16.1 11.0 3.1 41 5.9 S 19 30 10 16 1021.3 1021.3 0.0
02/01:30pm 14.4 9.2 3.3 47 5.0 S 20 30 11 16 1021.5 - 0.0
02/01:00pm 14.7 9.7 4.6 50 4.7 S 20 35 11 19 1021.7 1021.7 0.0
02/12:30pm 14.6 9.9 5.0 52 4.5 S 19 30 10 16 1021.9 - 0.0
02/12:00pm 14.6 9.5 3.9 48 4.9 SSW 20 33 11 18 1022.0 1022.0 0.0
02/11:30am 13.8 8.8 3.6 50 4.6 SSW 19 30 10 16 1022.3 - 0.0
02/11:00am 13.2 8.1 4.2 54 4.1 S 20 32 11 17 1022.4 1022.4 0.0
02/10:30am 12.6 8.0 5.5 62 3.3 SSW 19 28 10 15 1022.4 - 0.0
02/10:00am 11.8 7.3 6.0 67 2.7 SSW 19 26 10 14 1022.2 1022.2 0.0
02/09:30am 10.7 6.1 6.4 75 2.0 SSW 20 30 11 16 1022.3 - 0.0
02/09:00am 9.9 5.2 6.2 78 1.7 SSW 20 30 11 16 1022.2 1022.2 5.2
02/08:30am 9.1 5.4 6.5 84 1.2 SSW 15 24 8 13 1021.7 - 5.2
02/08:00am 7.9 5.1 6.8 93 0.5 WSW 11 17 6 9 1021.3 1021.3 5.2
02/07:37am 7.3 4.0 6.4 94 0.4 WSW 13 17 7 9 1021.0 - 5.2
02/07:30am 7.1 4.2 6.4 95 0.3 WSW 11 17 6 9 1020.8 - 5.2
02/07:00am 7.0 4.4 6.3 95 0.3 SW 9 15 5 8 1020.2 1020.2 5.2
02/06:30am 6.3 4.0 5.9 97 0.2 W 7 11 4 6 1019.7 - 5.2
02/06:00am 6.3 3.7 5.9 97 0.2 W 9 13 5 7 1019.0 1019.0 5.2
02/05:30am 6.3 3.3 5.9 97 0.2 WSW 11 17 6 9 1018.6 - 5.2
02/05:00am 6.9 3.9 6.0 94 0.4 WSW 11 15 6 8 1018.2 1018.1 5.2
02/04:30am 7.1 4.5 6.2 94 0.4 WSW 9 15 5 8 1018.0 - 5.2
02/04:00am 7.2 4.6 6.1 93 0.5 WSW 9 13 5 7 1017.8 1017.7 5.2
02/03:30am 7.5 3.7 5.7 88 0.8 WSW 15 20 8 11 1017.5 - 5.2
02/03:00am 7.5 4.5 6.0 90 0.7 WSW 11 17 6 9 1017.5 1017.4 5.2
02/02:30am 7.6 3.8 5.8 88 0.8 W 15 20 8 11 1017.5 - 5.2
02/02:00am 6.8 3.7 5.4 91 0.6 W 11 17 6 9 1017.4 1017.3 5.2
02/01:30am 7.2 3.9 4.7 84 1.1 WSW 11 19 6 10 1017.3 - 5.2
02/01:00am 6.3 3.4 4.4 88 0.8 WSW 9 11 5 6 1017.3 1017.2 5.2
02/12:30am 6.6 4.1 4.5 86 0.9 WSW 7 9 4 5 1017.0 - 5.2
02/12:00am 6.4 3.5 4.8 89 0.7 WSW 9 13 5 7 1017.0 1016.9 5.2
 
Date/Time
EST
Temp
°C
App
Temp
°C
Dew
Point
Rel
Hum
%
Delta-T
°C
Wind Press
QNH
hPa
Press
MSL
hPa
Rain
since 9 am
mm
Dir
 
Spd
km/h
Gust
km/h
Spd
kts
Gust
kts
01/11:30pm 6.6 4.4 5.2 91 0.6 WSW 6 7 3 4 1016.7 - 5.2
01/11:00pm 7.6 4.9 5.6 87 0.9 SW 9 13 5 7 1016.5 1016.5 5.2
01/10:30pm 8.6 5.1 5.5 81 1.4 SW 13 17 7 9 1016.4 - 5.2
01/10:00pm 8.6 5.7 6.4 86 1.0 SW 11 15 6 8 1016.2 1016.2 5.2
01/09:30pm 9.5 6.8 7.4 87 1.0 WSW 11 17 6 9 1016.0 - 5.2
01/09:00pm 9.6 7.7 9.2 97 0.2 W 9 13 5 7 1015.8 1015.8 5.2
01/08:30pm 9.9 8.1 9.5 97 0.2 W 9 13 5 7 1015.4 - 5.2
01/08:00pm 9.9 8.4 9.3 96 0.3 WNW 7 11 4 6 1015.1 1015.1 5.0
01/07:30pm 10.4 7.9 9.8 96 0.3 WNW 13 17 7 9 1014.6 - 5.0
01/07:00pm 10.4 9.1 9.8 96 0.3 WNW 7 9 4 5 1014.0 1014.0 5.0
01/06:30pm 11.2 9.7 10.4 95 0.4 W 9 13 5 7 1013.7 - 5.0
01/06:00pm 12.4 10.7 11.1 92 0.7 W 11 15 6 8 1013.4 1013.4 5.0
01/05:30pm 11.9 9.7 10.7 92 0.6 W 13 19 7 10 1013.2 - 5.0
01/05:00pm 11.7 10.2 10.5 92 0.6 WNW 9 13 5 7 1013.0 1013.0 5.0
01/04:32pm 11.4 9.4 10.2 92 0.6 W 11 17 6 9 1012.8 - 4.8
01/04:30pm 11.4 9.9 10.4 94 0.5 W 9 17 5 9 1012.8 - 4.8
01/04:15pm 11.3 9.7 10.3 94 0.5 W 9 13 5 7 1012.8 - 4.6
01/04:00pm 11.3 9.3 10.3 94 0.5 W 11 15 6 8 1012.7 1012.7 4.0
01/03:49pm 11.3 8.9 10.1 92 0.6 W 13 22 7 12 1012.5 - 3.8
01/03:35pm 12.0 9.8 10.8 92 0.6 W 13 26 7 14 1012.5 - 3.6
01/03:30pm 12.4 10.7 11.1 92 0.7 W 11 17 6 9 1012.4 - 3.4
01/03:16pm 12.5 10.7 11.0 90 0.8 W 11 17 6 9 1012.4 - 3.2
01/03:00pm 12.6 10.7 10.5 87 1.1 W 11 17 6 9 1012.4 1012.4 3.2
01/02:30pm 12.4 10.7 11.3 93 0.6 WNW 11 15 6 8 1012.4 - 3.2
01/02:00pm 12.2 10.1 11.3 94 0.5 W 13 19 7 10 1012.5 1012.5 3.2
01/01:30pm 12.1 10.7 10.8 92 0.7 W 9 15 5 8 1012.5 - 3.2
01/01:00pm 12.1 10.7 10.8 92 0.7 WNW 9 13 5 7 1012.9 1012.9 3.0
01/12:30pm 12.5 10.4 11.0 90 0.8 W 13 20 7 11 1013.3 - 2.8
01/12:00pm 12.6 10.6 11.5 93 0.6 W 13 17 7 9 1013.5 1013.5 2.4
01/11:30am 12.5 10.5 11.6 94 0.5 WSW 13 20 7 11 1013.4 - 1.8
01/11:00am 12.6 10.3 11.7 94 0.5 WSW 15 22 8 12 1013.3 1013.3 1.4
01/10:30am 12.8 11.2 11.7 93 0.6 WSW 11 17 6 9 1013.5 - 0.8
01/10:00am 13.9 11.7 9.2 73 2.4 W 11 19 6 10 1013.2 1013.2 0.0
01/09:30am 14.0 12.2 8.0 67 3.0 WSW 7 15 4 8 1012.5 - 0.0
01/09:00am 13.4 11.3 8.2 71 2.6 WSW 9 13 5 7 1012.4 1012.5 0.0
01/08:30am 13.4 10.1 4.5 55 4.1 WSW 11 15 6 8 1012.1 - 0.0
01/08:00am 13.6 10.2 1.6 44 5.2 WSW 9 13 5 7 1012.0 1012.1 0.0
01/07:30am 13.8 10.2 0.3 39 5.7 W 9 13 5 7 1012.1 - 0.0
01/07:00am 13.9 9.6 -1.7 34 6.3 WNW 11 13 6 7 1011.8 1011.9 0.0
01/06:30am 14.6 10.2 -2.4 31 6.8 NNW 11 13 6 7 1011.1 - 0.0
01/06:00am 15.6 11.1 -3.3 27 7.5 NNW 11 15 6 8 1010.7 1010.8 0.0
01/05:30am 16.3 11.4 -3.6 25 7.9 NNW 13 20 7 11 1010.7 - 0.0
01/05:00am 17.1 12.1 -4.1 23 8.4 NNW 13 20 7 11 1010.2 1010.3 0.0
01/04:30am 17.4 11.6 -4.3 22 8.6 N 17 24 9 13 1010.2 - 0.0
01/04:00am 16.9 11.2 -3.6 24 8.2 N 17 22 9 12 1010.1 1010.2 0.0
01/03:30am 16.8 10.8 -3.4 25 8.1 N 19 22 10 12 1010.1 - 0.0
01/03:00am 17.6 11.9 -3.9 23 8.6 N 17 24 9 13 1010.6 1010.7 0.0
01/02:30am 17.7 12.0 -4.1 22 8.7 N 17 24 9 13 1010.5 - 0.0
01/02:00am 17.4 11.7 -3.4 24 8.4 N 17 20 9 11 1010.8 1010.9 0.0
01/01:30am 17.4 11.7 -3.9 23 8.5 N 17 22 9 12 1011.2 - 0.0
01/01:00am 17.3 11.2 -3.6 24 8.4 N 19 26 10 14 1011.0 1011.1 0.0
01/12:30am 17.1 11.3 -1.5 28 7.8 NNE 19 22 10 12 1010.7 - 0.0
01/12:00am 16.9 11.3 -3.2 25 8.1 N 17 20 9 11 1011.9 1012.0 0.0
 
Date/Time
EST
Temp
°C
App
Temp
°C
Dew
Point
Rel
Hum
%
Delta-T
°C
Wind Press
QNH
hPa
Press
MSL
hPa
Rain
since 9 am
mm
Dir
 
Spd
km/h
Gust
km/h
Spd
kts
Gust
kts
31/11:30pm 16.4 11.3 -2.1 28 7.6 N 15 17 8 9 1012.2 - 0.0
31/11:00pm 17.4 12.5 -3.5 24 8.4 N 13 15 7 8 1012.6 1012.7 0.0
31/10:30pm 17.8 12.1 -3.9 22 8.7 N 17 20 9 11 1012.6 - 0.0
31/10:00pm 18.8 13.0 -4.4 20 9.3 N 17 20 9 11 1012.7 1012.8 0.0
31/09:30pm 19.5 13.1 -4.7 19 9.7 N 20 24 11 13 1012.5 - 0.0
31/09:00pm 19.4 13.6 -4.4 19 9.6 N 17 22 9 12 1012.7 1012.8 0.0
31/08:30pm 19.4 14.5 -3.1 21 9.3 N 13 17 7 9 1013.1 - 0.0
31/08:00pm 17.3 12.9 0.6 32 7.3 NNE 13 13 7 7 1013.2 1013.3 0.0
31/07:30pm 18.5 14.8 0.0 28 8.1 N 9 11 5 6 1013.4 - 0.0
31/07:00pm 19.1 14.3 -2.4 23 9.0 N 13 15 7 8 1013.2 1013.3 0.0
31/06:30pm 20.3 16.2 -3.3 20 9.8 N 9 13 5 7 1013.5 - 0.0
31/06:00pm 22.5 18.2 -5.1 15 11.3 NNW 9 15 5 8 1013.4 1013.5 0.0
31/05:30pm 23.4 17.8 -6.9 12 12.1 NNW 15 24 8 13 1013.2 - 0.0
31/05:00pm 23.9 17.2 -7.8 11 12.5 NNW 20 33 11 18 1013.2 1013.3 0.0
31/04:30pm 24.9 18.4 -8.3 10 13.1 NNW 19 28 10 15 1013.2 - 0.0
31/04:00pm 25.4 19.3 -7.2 11 13.2 NW 17 26 9 14 1013.3 1013.4 0.0
31/03:30pm 25.4 18.0 -7.9 10 13.3 N 24 33 13 18 1013.5 - 0.0
31/03:00pm 24.7 18.7 -7.1 11 12.8 NW 17 32 9 17 1013.8 1013.9 0.0
31/02:30pm 25.1 17.6 -9.0 10 13.3 N 24 35 13 19 1014.3 - 0.0
31/02:00pm 24.3 16.5 -7.8 11 12.7 NNW 26 37 14 20 1014.7 1014.8 0.0
31/01:30pm 24.8 17.5 -6.8 12 12.8 N 24 41 13 22 1015.2 - 0.0
31/01:00pm 24.9 17.9 -7.1 11 12.9 NNW 22 37 12 20 1015.8 1015.9 0.0
31/12:30pm 23.9 16.6 -6.7 12 12.3 NW 24 39 13 21 1016.5 - 0.0
31/12:00pm 24.2 17.0 -5.2 14 12.2 NNW 24 39 13 21 1017.0 1017.0 0.0
31/11:30am 22.9 17.6 -3.2 17 11.1 NNW 15 26 8 14 1017.7 - 0.0
31/11:00am 22.5 16.4 -3.7 17 11.0 N 19 26 10 14 1018.2 1018.2 0.0
31/10:30am 21.6 16.0 -2.6 19 10.3 NNW 17 24 9 13 1018.3 - 0.0
31/10:00am 20.6 16.7 0.9 27 8.9 N 11 15 6 8 1018.7 1018.7 0.0
31/09:30am 18.2 14.9 2.5 35 7.2 NNE 9 13 5 7 1018.8 - 0.0
31/09:00am 16.0 12.6 2.1 39 6.2 N 9 13 5 7 1019.0 1019.0 0.0
31/08:30am 13.8 10.2 2.8 47 4.9 NNE 11 15 6 8 1018.7 - 0.0
31/08:00am 10.6 7.4 3.3 60 3.2 NNE 9 11 5 6 1018.8 1018.8 0.0
31/07:30am 8.1 5.3 3.4 72 2.0 N 7 9 4 5 1018.8 - 0.0
31/07:00am 7.6 4.5 3.6 76 1.7 N 9 11 5 6 1018.7 1018.7 0.0
31/06:30am 8.8 5.7 3.7 70 2.2 N 9 11 5 6 1018.5 - 0.0
31/06:00am 8.1 5.3 2.9 70 2.2 N 7 9 4 5 1018.3 1018.3 0.0
31/05:30am 8.4 5.4 2.2 65 2.6 NNE 7 9 4 5 1018.1 - 0.0
31/05:00am 7.5 4.7 3.0 73 1.9 NE 7 9 4 5 1017.9 1017.9 0.0
31/04:30am 7.5 4.7 3.0 73 1.9 NNE 7 9 4 5 1017.9 - 0.0
31/04:00am 7.8 4.9 2.8 70 2.1 NE 7 7 4 4 1017.8 1017.8 0.0
31/03:30am 9.1 6.5 3.0 65 2.6 N 6 9 3 5 1017.9 - 0.0
31/03:00am 10.7 7.3 2.0 55 3.7 NW 9 19 5 10 1018.4 1018.4 0.0
31/02:30am 10.9 7.9 2.2 55 3.7 NNW 7 9 4 5 1018.3 - 0.0
31/02:00am 11.6 8.3 2.3 53 4.0 NNW 9 13 5 7 1018.6 1018.6 0.0
31/01:30am 11.7 8.7 1.9 51 4.2 NE 7 11 4 6 1018.8 - 0.0
31/01:00am 11.2 8.1 3.5 59 3.4 NE 9 9 5 5 1018.8 1018.8 0.0
31/12:30am 11.7 8.5 3.3 56 3.7 NE 9 11 5 6 1019.0 - 0.0
31/12:00am 12.2 9.5 3.7 56 3.8 ENE 7 9 4 5 1019.2 1019.2 0.0

Other Formats:

Comma delimited format used in spreadsheet applications
http://www.bom.gov.au/fwo/IDN60801/IDN60801.94693.axf

JavaScript Object Notation format (JSON) in row-major order
http://www.bom.gov.au/fwo/IDN60801/IDN60801.94693.json